Time;durP1;ratioP1;P1;durP2;ratioP2;P2;SDS_P1;SDS_P2;PMS_P1;PMS_P2;Temp;Humidity;BMP_temperature;BMP_pressure;BME280_temperature;BME280_humidity;BME280_pressure;Samples;Min_cycle;Max_cycle;Signal;HPM_P1;HPM_P2
2021/09/21 00:02:25;;;;;;;0.30;0.30;;;6.10;99.90;;;;;;5089997;28;20221;-86
2021/09/21 00:04:50;;;;;;;0.30;0.30;;;6.10;99.90;;;;;;5073370;28;20682;-86
2021/09/21 00:07:16;;;;;;;0.30;0.30;;;6.20;99.90;;;;;;5090112;28;20205;-86
2021/09/21 00:09:43;;;;;;;0.40;0.40;;;6.10;99.90;;;;;;5072804;28;20220;-86
2021/09/21 00:12:09;;;;;;;0.30;0.30;;;6.20;99.90;;;;;;5072986;28;20209;-87
2021/09/21 00:14:35;;;;;;;0.20;0.20;;;6.20;99.90;;;;;;5089094;28;20536;-87
2021/09/21 00:17:02;;;;;;;0.38;0.38;;;6.20;99.90;;;;;;5090041;28;20208;-86
2021/09/21 00:19:32;;;;;;;0.20;0.20;;;6.20;99.90;;;;;;5073978;28;20193;-86
2021/09/21 00:21:59;;;;;;;0.30;0.30;;;6.20;99.90;;;;;;5089782;28;20205;-86
2021/09/21 00:24:25;;;;;;;0.25;0.25;;;6.20;99.90;;;;;;5089540;28;20217;-86
2021/09/21 00:26:50;;;;;;;0.30;0.30;;;6.20;99.90;;;;;;5074251;28;20197;-87
2021/09/21 00:29:16;;;;;;;2.20;1.00;;;6.20;99.90;;;;;;5072580;28;20247;-87
2021/09/21 00:31:48;;;;;;;0.30;0.30;;;6.30;99.90;;;;;;5089699;28;20201;-86
2021/09/21 00:34:15;;;;;;;0.38;0.38;;;6.30;99.90;;;;;;5089409;28;20193;-87
2021/09/21 00:36:42;;;;;;;0.40;0.40;;;6.30;99.90;;;;;;5089595;28;20730;-86
2021/09/21 00:39:11;;;;;;;0.30;0.30;;;6.30;99.90;;;;;;5073870;28;20208;-86
2021/09/21 00:41:39;;;;;;;0.30;0.30;;;6.30;99.90;;;;;;5089206;28;20224;-87
2021/09/21 00:44:06;;;;;;;0.40;0.40;;;6.30;99.90;;;;;;5072441;28;20192;-86
2021/09/21 00:46:32;;;;;;;0.32;0.32;;;6.30;99.90;;;;;;5089151;28;20205;-86
2021/09/21 00:48:58;;;;;;;0.40;0.40;;;6.40;99.90;;;;;;5089298;28;20205;-87
2021/09/21 00:51:24;;;;;;;0.30;0.30;;;6.40;99.90;;;;;;5073436;28;20234;-87
2021/09/21 00:53:51;;;;;;;0.45;0.45;;;6.40;99.90;;;;;;5072278;28;20240;-87
2021/09/21 00:56:17;;;;;;;0.30;0.30;;;6.40;99.90;;;;;;5072254;28;20291;-87
2021/09/21 00:58:42;;;;;;;0.20;0.20;;;6.40;99.90;;;;;;5072067;28;20296;-86
2021/09/21 01:01:08;;;;;;;0.50;0.50;;;6.40;99.90;;;;;;5089146;28;20671;-86
2021/09/21 01:03:34;;;;;;;0.30;0.30;;;6.40;99.90;;;;;;5072618;28;20197;-86
2021/09/21 01:05:59;;;;;;;0.30;0.30;;;6.40;99.90;;;;;;5088281;28;20197;-87
2021/09/21 01:08:29;;;;;;;0.22;0.22;;;6.30;99.90;;;;;;5073217;28;20283;-86
2021/09/21 01:10:56;;;;;;;0.30;0.30;;;6.30;99.90;;;;;;5089003;28;20247;-86
2021/09/21 01:13:22;;;;;;;0.52;0.52;;;6.30;99.90;;;;;;5088569;28;20277;-86
2021/09/21 01:15:48;;;;;;;0.30;0.30;;;6.40;99.90;;;;;;5087762;28;20346;-86
2021/09/21 01:18:13;;;;;;;0.85;0.85;;;6.40;99.90;;;;;;5088746;28;20205;-87
2021/09/21 01:20:39;;;;;;;0.30;0.30;;;6.40;99.90;;;;;;5070668;28;20205;-86
2021/09/21 01:23:05;;;;;;;0.50;0.50;;;6.50;99.90;;;;;;5088605;28;20207;-86
2021/09/21 01:25:32;;;;;;;0.43;0.43;;;6.50;99.90;;;;;;5088301;28;20667;-86
2021/09/21 01:27:58;;;;;;;0.20;0.20;;;6.50;99.90;;;;;;5088578;28;20212;-86
2021/09/21 01:30:24;;;;;;;0.20;0.20;;;6.50;99.90;;;;;;5088436;28;20573;-86
2021/09/21 01:32:50;;;;;;;0.30;0.30;;;6.50;99.90;;;;;;5071415;28;20283;-86
2021/09/21 01:35:16;;;;;;;0.35;0.35;;;6.60;99.90;;;;;;5088385;28;20300;-86
2021/09/21 01:37:48;;;;;;;0.40;0.40;;;6.50;99.90;;;;;;5071288;28;20299;-86
2021/09/21 01:40:14;;;;;;;0.40;0.40;;;6.60;99.90;;;;;;5054340;28;20226;-87
2021/09/21 01:42:46;;;;;;;0.40;0.40;;;6.60;99.90;;;;;;5072648;28;20639;-86
2021/09/21 01:45:13;;;;;;;0.30;0.30;;;6.60;99.90;;;;;;5070709;28;20269;-85
2021/09/21 01:47:39;;;;;;;0.30;0.30;;;6.60;99.90;;;;;;5071106;28;20209;-85
2021/09/21 02:00:42;;;;;;;0.30;0.30;;;6.70;99.90;;;;;;5070040;28;20651;-86
2021/09/21 02:03:07;;;;;;;0.20;0.20;;;6.70;99.90;;;;;;5088141;28;20185;-86
2021/09/21 02:05:33;;;;;;;0.30;0.30;;;6.70;99.90;;;;;;5070731;28;20208;-86
2021/09/21 02:07:59;;;;;;;0.30;0.30;;;6.80;99.90;;;;;;5072529;28;20270;-87
2021/09/21 02:10:24;;;;;;;0.28;0.28;;;6.80;99.90;;;;;;5086556;28;20290;-86
2021/09/21 02:12:50;;;;;;;0.40;0.40;;;6.80;99.90;;;;;;5069566;28;20205;-85
2021/09/21 02:15:16;;;;;;;0.30;0.30;;;6.70;99.90;;;;;;5087507;28;20663;-86
2021/09/21 02:17:42;;;;;;;0.40;0.40;;;6.70;99.90;;;;;;5070393;28;20212;-86
2021/09/21 02:20:09;;;;;;;0.30;0.30;;;6.70;99.90;;;;;;5070595;28;20659;-86
2021/09/21 02:22:35;;;;;;;1.23;0.50;;;6.70;99.90;;;;;;5072397;28;20208;-86
2021/09/21 02:25:01;;;;;;;0.20;0.20;;;6.70;99.90;;;;;;5070450;28;20197;-85
2021/09/21 02:27:26;;;;;;;2.33;0.73;;;6.70;99.90;;;;;;5070324;28;20671;-86
2021/09/21 02:29:52;;;;;;;0.30;0.30;;;6.70;99.90;;;;;;5087624;28;20196;-86
2021/09/21 02:32:18;;;;;;;0.30;0.30;;;6.70;99.90;;;;;;5087629;28;20227;-86
2021/09/21 02:34:47;;;;;;;0.20;0.20;;;6.60;99.90;;;;;;5070545;28;20201;-86
2021/09/21 02:37:14;;;;;;;0.57;0.57;;;6.60;99.90;;;;;;5086804;28;20207;-86
2021/09/21 02:39:40;;;;;;;0.30;0.30;;;6.60;99.90;;;;;;5087422;28;20200;-86
2021/09/21 02:42:06;;;;;;;0.28;0.28;;;6.60;99.90;;;;;;5087148;28;20550;-86
2021/09/21 02:44:33;;;;;;;0.30;0.30;;;6.60;99.90;;;;;;5086890;28;20253;-86
2021/09/21 02:47:00;;;;;;;0.30;0.30;;;6.70;99.90;;;;;;5070234;28;20215;-87
2021/09/21 02:49:26;;;;;;;0.30;0.30;;;6.60;99.90;;;;;;5086643;28;20216;-86
2021/09/21 02:51:51;;;;;;;0.75;0.68;;;6.70;99.90;;;;;;5087118;28;20221;-86
2021/09/21 02:54:17;;;;;;;0.30;0.30;;;6.70;99.90;;;;;;5070042;28;20569;-86
2021/09/21 02:56:43;;;;;;;0.40;0.40;;;6.70;99.90;;;;;;5069193;28;20379;-86
2021/09/21 02:59:08;;;;;;;0.50;0.50;;;6.70;99.90;;;;;;5070266;28;20227;-86
2021/09/21 03:01:34;;;;;;;0.40;0.40;;;6.80;99.90;;;;;;5070477;28;20197;-86
2021/09/21 03:04:05;;;;;;;1.13;0.95;;;6.80;99.90;;;;;;5086752;28;20209;-85
2021/09/21 03:06:34;;;;;;;0.30;0.30;;;6.80;99.90;;;;;;5068440;28;20196;-85
2021/09/21 03:11:50;;;;;;;0.30;0.30;;;6.90;99.90;;;;;;5043805;28;20267;-88
2021/09/21 03:17:26;;;;;;;0.32;0.32;;;6.80;99.90;;;;;;5046722;28;20208;-88
2021/09/21 03:20:00;;;;;;;0.30;0.30;;;6.80;99.90;;;;;;5014025;28;20241;-88
2021/09/21 03:22:27;;;;;;;0.30;0.30;;;6.90;99.90;;;;;;5050041;28;20307;-87
2021/09/21 03:24:54;;;;;;;0.40;0.40;;;6.90;99.90;;;;;;5069159;28;20274;-87
2021/09/21 03:27:20;;;;;;;0.52;0.52;;;6.90;99.90;;;;;;5070089;28;20213;-88
2021/09/21 03:29:47;;;;;;;0.30;0.30;;;6.90;99.90;;;;;;5071301;28;20193;-86
2021/09/21 03:32:13;;;;;;;0.50;0.50;;;6.90;99.90;;;;;;5086769;28;20678;-86
2021/09/21 03:34:39;;;;;;;0.25;0.25;;;6.80;99.90;;;;;;5087189;28;20335;-86
2021/09/21 03:37:07;;;;;;;0.20;0.20;;;6.90;99.90;;;;;;5071356;28;20272;-87
2021/09/21 03:39:33;;;;;;;0.28;0.28;;;6.90;99.90;;;;;;5087099;28;20700;-86
2021/09/21 03:41:59;;;;;;;0.30;0.30;;;6.90;99.90;;;;;;5086515;28;20683;-85
2021/09/21 03:44:26;;;;;;;0.40;0.40;;;6.90;99.90;;;;;;5069521;28;20207;-86
2021/09/21 03:46:53;;;;;;;0.32;0.32;;;6.80;99.90;;;;;;5086489;28;20259;-85
2021/09/21 03:49:22;;;;;;;0.40;0.40;;;6.80;99.90;;;;;;5087538;28;20303;-88
2021/09/21 03:51:48;;;;;;;0.20;0.20;;;6.80;99.90;;;;;;5073340;28;20220;-87
2021/09/21 03:54:14;;;;;;;0.55;0.55;;;6.80;99.90;;;;;;5090246;28;20224;-87
2021/09/21 03:56:40;;;;;;;0.60;0.43;;;6.80;99.90;;;;;;5090228;28;20685;-87
2021/09/21 03:59:07;;;;;;;0.30;0.30;;;6.80;99.90;;;;;;5090244;28;20570;-87
2021/09/21 04:01:33;;;;;;;0.30;0.30;;;6.80;99.90;;;;;;5072110;28;20207;-87
2021/09/21 04:04:01;;;;;;;0.28;0.28;;;6.80;99.90;;;;;;5073164;28;20225;-87
2021/09/21 04:06:27;;;;;;;0.30;0.30;;;6.80;99.90;;;;;;5073910;28;20197;-87
2021/09/21 04:08:54;;;;;;;0.30;0.30;;;6.80;99.90;;;;;;5090018;28;20235;-86
2021/09/21 04:11:21;;;;;;;0.40;0.40;;;6.80;99.90;;;;;;5071409;28;20205;-87
2021/09/21 04:13:47;;;;;;;0.20;0.20;;;6.90;99.90;;;;;;5090055;28;20613;-87
2021/09/21 04:16:13;;;;;;;0.30;0.30;;;6.80;99.90;;;;;;5089932;28;20683;-87
2021/09/21 04:18:38;;;;;;;0.20;0.20;;;6.80;99.90;;;;;;5089321;28;20299;-86
2021/09/21 04:21:05;;;;;;;0.30;0.30;;;6.80;99.90;;;;;;5074308;28;20200;-87
2021/09/21 04:23:31;;;;;;;0.40;0.40;;;6.90;99.90;;;;;;5071655;28;20249;-87
2021/09/21 04:25:56;;;;;;;0.30;0.30;;;6.80;99.90;;;;;;5071242;28;20232;-87
2021/09/21 04:28:23;;;;;;;0.30;0.30;;;6.90;99.90;;;;;;5072803;28;20243;-87
2021/09/21 04:30:52;;;;;;;0.30;0.30;;;6.90;99.90;;;;;;5089584;28;20211;-87
2021/09/21 04:33:20;;;;;;;0.20;0.20;;;6.80;99.90;;;;;;5073931;28;20716;-90
2021/09/21 04:35:46;;;;;;;0.43;0.40;;;6.80;99.90;;;;;;5072550;28;20209;-86
2021/09/21 04:38:12;;;;;;;0.20;0.20;;;6.80;99.90;;;;;;5089101;28;20209;-85
2021/09/21 04:40:39;;;;;;;0.30;0.30;;;6.80;99.90;;;;;;5089412;28;20219;-85
2021/09/21 04:43:06;;;;;;;0.28;0.28;;;6.80;99.90;;;;;;5089170;28;20679;-86
2021/09/21 04:45:33;;;;;;;0.30;0.30;;;6.70;99.90;;;;;;5089118;28;20201;-86
2021/09/21 04:47:59;;;;;;;1.25;1.15;;;6.70;99.90;;;;;;5089473;28;20212;-86
2021/09/21 04:50:25;;;;;;;0.30;0.30;;;6.70;99.90;;;;;;5088815;28;20208;-86
2021/09/21 04:52:52;;;;;;;0.30;0.30;;;6.60;99.90;;;;;;5089248;28;20229;-86
2021/09/21 04:55:18;;;;;;;0.40;0.40;;;6.60;99.90;;;;;;5073637;28;20264;-87
2021/09/21 04:57:43;;;;;;;0.60;0.60;;;6.60;99.90;;;;;;5072132;28;20665;-87
2021/09/21 05:00:09;;;;;;;0.30;0.30;;;6.60;99.90;;;;;;5072904;28;20201;-86
2021/09/21 05:02:36;;;;;;;0.57;0.57;;;6.70;99.90;;;;;;5088707;28;20722;-86
2021/09/21 05:05:02;;;;;;;0.20;0.20;;;6.70;99.90;;;;;;5088973;28;20618;-87
2021/09/21 05:07:28;;;;;;;0.30;0.30;;;6.70;99.90;;;;;;5071781;28;20254;-85
2021/09/21 05:09:54;;;;;;;0.40;0.40;;;6.70;99.90;;;;;;5088820;28;20275;-86
2021/09/21 05:12:20;;;;;;;0.65;0.65;;;6.80;99.90;;;;;;5071937;28;20239;-88
2021/09/21 05:14:46;;;;;;;0.30;0.30;;;6.70;99.90;;;;;;5071669;28;20200;-88
2021/09/21 05:17:11;;;;;;;0.57;0.57;;;6.80;99.90;;;;;;5073230;28;20196;-87
2021/09/21 05:19:37;;;;;;;0.30;0.30;;;6.80;99.90;;;;;;5071739;28;20262;-87
2021/09/21 05:22:03;;;;;;;0.22;0.22;;;6.80;99.90;;;;;;5088756;28;20631;-87
2021/09/21 05:24:29;;;;;;;0.20;0.20;;;6.80;99.90;;;;;;5088370;28;20209;-87
2021/09/21 05:26:55;;;;;;;0.32;0.32;;;6.80;99.90;;;;;;5088690;28;20201;-86
2021/09/21 05:29:20;;;;;;;0.20;0.20;;;6.90;99.90;;;;;;5088170;28;20693;-86
2021/09/21 05:31:46;;;;;;;0.20;0.20;;;6.90;99.90;;;;;;5073146;28;20192;-86
2021/09/21 05:34:12;;;;;;;0.30;0.30;;;6.90;99.90;;;;;;5088482;28;20311;-86
2021/09/21 05:36:37;;;;;;;0.68;0.60;;;6.90;99.90;;;;;;5072585;28;20213;-86
2021/09/21 05:39:03;;;;;;;0.40;0.40;;;6.90;99.90;;;;;;5070050;28;20204;-87
2021/09/21 05:41:29;;;;;;;0.50;0.50;;;6.90;99.90;;;;;;5088232;28;20220;-87
2021/09/21 05:43:55;;;;;;;0.30;0.30;;;6.90;99.90;;;;;;5088224;28;20189;-86
2021/09/21 05:46:20;;;;;;;0.30;0.30;;;6.90;99.90;;;;;;5088166;28;20221;-87
2021/09/21 05:48:48;;;;;;;0.43;0.43;;;7.00;99.90;;;;;;5088120;28;20563;-85
2021/09/21 05:51:14;;;;;;;0.55;0.55;;;7.00;99.90;;;;;;5071109;28;20225;-85
2021/09/21 05:53:39;;;;;;;0.30;0.30;;;7.00;99.90;;;;;;5087831;28;20721;-85
2021/09/21 05:56:05;;;;;;;0.38;0.38;;;7.10;99.90;;;;;;5088118;28;20262;-86
2021/09/21 05:58:48;;;;;;;0.60;0.60;;;7.10;99.90;;;;;;5087791;28;20208;-85
2021/09/21 06:01:14;;;;;;;0.20;0.20;;;7.20;99.90;;;;;;5071083;28;20204;-85
2021/09/21 06:03:39;;;;;;;0.25;0.25;;;7.30;99.90;;;;;;5087541;28;20571;-86
2021/09/21 06:06:05;;;;;;;0.30;0.30;;;7.30;99.90;;;;;;5070894;28;20256;-85
2021/09/21 06:08:31;;;;;;;0.40;0.40;;;7.30;99.90;;;;;;5070840;28;20231;-85
2021/09/21 06:10:57;;;;;;;0.30;0.30;;;7.40;99.90;;;;;;5087678;28;20262;-85
2021/09/21 06:13:23;;;;;;;0.70;0.70;;;7.40;99.90;;;;;;5069966;28;20208;-85
2021/09/21 06:15:49;;;;;;;0.50;0.50;;;7.50;99.90;;;;;;5070782;28;20667;-84
2021/09/21 06:18:16;;;;;;;0.47;0.47;;;7.60;99.90;;;;;;5087946;28;20243;-85
2021/09/21 06:20:43;;;;;;;0.68;0.60;;;7.70;99.90;;;;;;5071784;28;20208;-84
2021/09/21 06:23:09;;;;;;;0.30;0.30;;;7.80;99.90;;;;;;5070733;28;20204;-84
2021/09/21 06:25:36;;;;;;;0.40;0.40;;;7.90;99.90;;;;;;5069149;28;20573;-84
2021/09/21 06:28:02;;;;;;;0.20;0.20;;;8.00;99.90;;;;;;5087592;28;20209;-84
2021/09/21 06:30:28;;;;;;;0.30;0.30;;;8.00;99.90;;;;;;5068955;28;20250;-84
2021/09/21 06:32:54;;;;;;;1.85;0.80;;;8.00;99.90;;;;;;5087236;28;20255;-85
2021/09/21 06:35:20;;;;;;;0.20;0.20;;;8.10;99.90;;;;;;5071504;28;20624;-85
2021/09/21 06:37:47;;;;;;;0.35;0.35;;;8.10;99.90;;;;;;5087198;28;20292;-84
2021/09/21 06:40:13;;;;;;;0.30;0.30;;;8.10;99.90;;;;;;5087159;28;20672;-84
2021/09/21 06:42:41;;;;;;;0.30;0.30;;;8.10;99.90;;;;;;5087110;28;20273;-84
2021/09/21 06:45:09;;;;;;;1.23;0.60;;;8.20;99.90;;;;;;5087227;28;20224;-84
2021/09/21 06:47:35;;;;;;;0.35;0.35;;;8.20;99.90;;;;;;5071346;28;20687;-84
2021/09/21 06:50:03;;;;;;;0.30;0.30;;;8.20;99.90;;;;;;5086679;28;20205;-86
2021/09/21 06:52:30;;;;;;;0.57;0.55;;;8.30;99.90;;;;;;5086753;28;20263;-85
2021/09/21 06:55:01;;;;;;;0.30;0.30;;;8.30;99.90;;;;;;5070366;28;20270;-86
2021/09/21 06:57:46;;;;;;;0.47;0.47;;;8.30;99.90;;;;;;5086515;28;20212;-87
2021/09/21 07:00:58;;;;;;;;;;;;;;;;;;;;;
2021/09/21 07:03:35;;;;;;;0.30;0.30;;;8.40;99.90;;;;;;5066942;28;20235;-86
2021/09/21 07:06:06;;;;;;;0.30;0.30;;;8.40;99.90;;;;;;5087033;28;20569;-86
2021/09/21 07:08:32;;;;;;;0.32;0.32;;;8.40;99.90;;;;;;5068556;28;20212;-85
2021/09/21 07:10:57;;;;;;;0.30;0.30;;;8.50;99.90;;;;;;5087289;28;20204;-85
2021/09/21 07:13:23;;;;;;;0.70;0.40;;;8.40;99.90;;;;;;5069783;28;20300;-85
2021/09/21 07:15:49;;;;;;;0.30;0.30;;;8.50;99.90;;;;;;5086741;28;20265;-85
2021/09/21 07:18:15;;;;;;;0.43;0.43;;;8.50;99.90;;;;;;5087017;28;20333;-85
2021/09/21 07:20:41;;;;;;;0.43;0.43;;;8.50;99.90;;;;;;5086559;28;20269;-85
2021/09/21 07:23:06;;;;;;;0.22;0.22;;;8.50;99.90;;;;;;5087704;28;20208;-85
2021/09/21 07:25:38;;;;;;;0.30;0.30;;;8.50;99.90;;;;;;5074990;28;20283;-85
2021/09/21 07:28:04;;;;;;;0.20;0.20;;;8.50;99.90;;;;;;5090687;28;20246;-86
2021/09/21 07:30:34;;;;;;;0.30;0.30;;;8.50;99.90;;;;;;5073624;28;20228;-85
2021/09/21 07:33:00;;;;;;;1.75;1.48;;;8.50;99.90;;;;;;5090847;28;20306;-86
2021/09/21 07:35:26;;;;;;;0.40;0.40;;;8.60;99.90;;;;;;5072789;28;20238;-86
2021/09/21 07:37:52;;;;;;;0.40;0.40;;;8.60;99.90;;;;;;5090686;28;20213;-85
2021/09/21 07:40:20;;;;;;;0.30;0.30;;;8.60;99.90;;;;;;5091117;28;20203;-85
2021/09/21 07:42:50;;;;;;;0.30;0.30;;;8.60;99.90;;;;;;5090560;28;20288;-85
2021/09/21 07:45:16;;;;;;;0.45;0.45;;;8.60;99.90;;;;;;5090181;28;20683;-85
2021/09/21 07:47:42;;;;;;;0.98;0.98;;;8.60;99.90;;;;;;5090459;28;20205;-86
2021/09/21 07:50:11;;;;;;;0.20;0.20;;;8.70;99.90;;;;;;5071435;28;20201;-85
2021/09/21 07:52:36;;;;;;;0.40;0.40;;;8.60;99.90;;;;;;5072968;28;20253;-86
2021/09/21 07:55:03;;;;;;;0.28;0.28;;;8.60;99.90;;;;;;5090054;28;20258;-86
2021/09/21 07:57:29;;;;;;;0.30;0.30;;;8.70;99.90;;;;;;5089869;28;20211;-86
2021/09/21 07:59:55;;;;;;;0.30;0.30;;;8.70;99.90;;;;;;5090271;28;20287;-86
2021/09/21 08:02:21;;;;;;;0.20;0.20;;;8.70;99.90;;;;;;5074202;28;20280;-85
2021/09/21 08:04:46;;;;;;;0.30;0.30;;;8.80;99.90;;;;;;5073272;28;20216;-84
2021/09/21 08:07:12;;;;;;;0.30;0.30;;;8.80;99.90;;;;;;5074592;28;20200;-85
2021/09/21 08:09:38;;;;;;;0.32;0.32;;;8.80;99.90;;;;;;5074307;28;20282;-85
2021/09/21 08:12:05;;;;;;;0.30;0.30;;;8.80;99.90;;;;;;5089733;28;20208;-85
2021/09/21 08:14:36;;;;;;;0.30;0.30;;;8.90;99.90;;;;;;5074311;28;20704;-86
2021/09/21 08:17:04;;;;;;;0.22;0.22;;;8.90;99.90;;;;;;5089756;28;20209;-85
2021/09/21 08:19:30;;;;;;;0.52;0.47;;;8.90;99.90;;;;;;5072534;28;20547;-86
2021/09/21 08:21:55;;;;;;;0.95;0.73;;;8.90;99.90;;;;;;5089675;28;20200;-86
2021/09/21 08:24:21;;;;;;;0.30;0.30;;;9.00;99.90;;;;;;5089453;28;20212;-86
2021/09/21 08:26:47;;;;;;;5.88;1.35;;;9.00;99.90;;;;;;5089878;28;20205;-87
2021/09/21 08:29:13;;;;;;;0.60;0.60;;;9.00;99.90;;;;;;5071588;28;20209;-87
2021/09/21 08:31:40;;;;;;;4.13;1.50;;;9.00;99.90;;;;;;5085167;28;20213;-87
2021/09/21 08:34:05;;;;;;;0.20;0.20;;;9.10;99.90;;;;;;5068909;28;20217;-87
2021/09/21 08:36:32;;;;;;;0.77;0.77;;;9.10;99.90;;;;;;5068103;28;20205;-87
2021/09/21 08:38:58;;;;;;;0.55;0.55;;;9.10;99.90;;;;;;5073764;28;20216;-87
2021/09/21 08:41:26;;;;;;;0.50;0.50;;;9.10;99.90;;;;;;5072240;28;20212;-87
2021/09/21 08:43:51;;;;;;;0.25;0.25;;;9.10;99.90;;;;;;5072444;28;20196;-87
2021/09/21 08:46:19;;;;;;;0.40;0.40;;;9.10;99.90;;;;;;5089558;28;20702;-86
2021/09/21 08:48:44;;;;;;;0.30;0.30;;;9.10;99.90;;;;;;5079091;28;20193;-86
2021/09/21 08:51:10;;;;;;;0.30;0.30;;;9.10;99.90;;;;;;5092985;28;20221;-87
2021/09/21 08:53:36;;;;;;;0.30;0.30;;;9.00;99.90;;;;;;5089373;28;20208;-87
2021/09/21 08:56:02;;;;;;;0.30;0.30;;;9.00;99.90;;;;;;5089123;28;20197;-87
2021/09/21 08:58:27;;;;;;;0.77;0.77;;;9.00;99.90;;;;;;5072015;28;20209;-87
2021/09/21 09:00:53;;;;;;;0.30;0.30;;;9.00;99.90;;;;;;5088875;28;20201;-87
2021/09/21 09:03:19;;;;;;;0.30;0.30;;;9.00;99.90;;;;;;5072278;28;20196;-87
2021/09/21 09:05:50;;;;;;;0.50;0.50;;;9.00;99.90;;;;;;5089342;28;20219;-88
2021/09/21 09:08:34;;;;;;;0.30;0.30;;;9.00;99.90;;;;;;5070863;28;20204;-86
2021/09/21 09:11:24;;;;;;;0.38;0.38;;;9.00;99.90;;;;;;5055624;28;20213;-86
2021/09/21 09:13:58;;;;;;;0.30;0.30;;;9.00;99.90;;;;;;5059201;28;20205;-87
2021/09/21 09:16:25;;;;;;;0.30;0.30;;;9.00;99.90;;;;;;5073144;28;20259;-87
2021/09/21 09:19:07;;;;;;;0.28;0.28;;;9.10;99.90;;;;;;5088927;28;20216;-88
2021/09/21 09:21:35;;;;;;;0.40;0.40;;;9.20;99.90;;;;;;5088555;28;20244;-87
2021/09/21 09:24:03;;;;;;;0.30;0.30;;;9.20;99.90;;;;;;5073291;28;20197;-86
2021/09/21 09:26:32;;;;;;;0.35;0.35;;;9.20;99.90;;;;;;5071720;28;20573;-87
2021/09/21 09:28:58;;;;;;;1.60;1.17;;;9.20;99.90;;;;;;5088944;28;20310;-87
2021/09/21 09:31:30;;;;;;;0.45;0.40;;;9.30;99.90;;;;;;5088486;28;20204;-88
2021/09/21 09:34:10;;;;;;;0.30;0.30;;;9.20;99.90;;;;;;5088783;28;20201;-87
2021/09/21 09:36:47;;;;;;;0.40;0.40;;;9.30;99.90;;;;;;5088781;28;20425;-89
2021/09/21 09:39:14;;;;;;;0.20;0.20;;;9.40;99.90;;;;;;5088582;28;20226;-87
2021/09/21 09:41:42;;;;;;;0.30;0.30;;;9.40;99.90;;;;;;5088186;28;20236;-87
2021/09/21 09:44:17;;;;;;;0.40;0.40;;;9.50;99.90;;;;;;5071630;28;20197;-87
2021/09/21 09:46:44;;;;;;;0.30;0.30;;;9.50;99.90;;;;;;5070184;28;20299;-87
2021/09/21 09:49:10;;;;;;;0.73;0.73;;;9.60;99.90;;;;;;5088257;28;20204;-88
2021/09/21 09:51:49;;;;;;;0.30;0.30;;;9.50;99.90;;;;;;5088042;28;20702;-88
2021/09/21 09:54:15;;;;;;;0.30;0.30;;;9.50;99.90;;;;;;5052636;28;20326;-88
2021/09/21 09:56:42;;;;;;;0.85;0.85;;;9.50;99.90;;;;;;5055126;28;20726;-88
2021/09/21 09:59:10;;;;;;;1.25;0.93;;;9.50;99.90;;;;;;5071638;28;20209;-88
2021/09/21 10:01:36;;;;;;;1.00;0.90;;;9.50;99.90;;;;;;5071111;28;20708;-88
2021/09/21 10:04:02;;;;;;;0.30;0.30;;;9.50;99.90;;;;;;5071389;28;20200;-87
2021/09/21 10:06:32;;;;;;;0.30;0.30;;;9.50;99.90;;;;;;5070832;28;20199;-86
2021/09/21 10:08:58;;;;;;;0.40;0.40;;;9.60;99.90;;;;;;5087988;28;20208;-88
2021/09/21 10:11:29;;;;;;;0.30;0.30;;;9.60;99.90;;;;;;5088773;28;20197;-85
2021/09/21 10:13:57;;;;;;;0.73;0.68;;;9.60;99.90;;;;;;5089572;28;20208;-87
2021/09/21 10:16:23;;;;;;;0.82;0.40;;;9.60;99.90;;;;;;5087879;28;20204;-87
2021/09/21 10:18:53;;;;;;;0.30;0.30;;;9.60;99.90;;;;;;5087890;28;20304;-88
2021/09/21 10:21:37;;;;;;;0.80;0.80;;;9.70;99.90;;;;;;5087582;28;20200;-86
2021/09/21 10:24:06;;;;;;;2.38;0.70;;;9.70;99.90;;;;;;5087604;28;20606;-86
2021/09/21 10:26:38;;;;;;;0.50;0.50;;;9.70;99.90;;;;;;5087249;28;20242;-87
2021/09/21 10:29:04;;;;;;;0.75;0.75;;;9.70;99.90;;;;;;5087686;28;20205;-87
2021/09/21 10:31:30;;;;;;;0.30;0.30;;;9.70;99.90;;;;;;5087244;28;20334;-88
2021/09/21 10:33:56;;;;;;;0.77;0.77;;;9.70;99.90;;;;;;5087843;28;20204;-88
2021/09/21 10:36:32;;;;;;;0.63;0.47;;;9.80;99.90;;;;;;5087699;28;20212;-89
2021/09/21 10:39:06;;;;;;;0.20;0.20;;;9.80;99.90;;;;;;5070914;28;20212;-89
2021/09/21 10:41:32;;;;;;;0.40;0.40;;;9.90;99.90;;;;;;5069547;28;20199;-88
2021/09/21 10:44:06;;;;;;;0.30;0.30;;;9.90;99.90;;;;;;5062531;28;20568;-88
2021/09/21 10:46:52;;;;;;;0.90;0.90;;;9.90;99.90;;;;;;5087528;28;20196;-89
2021/09/21 10:49:23;;;;;;;0.93;0.90;;;9.90;99.90;;;;;;5087781;28;20258;-87
2021/09/21 10:51:50;;;;;;;0.28;0.28;;;9.80;99.90;;;;;;5070722;28;20227;-89
2021/09/21 10:54:16;;;;;;;0.30;0.30;;;9.80;99.90;;;;;;5050859;28;20293;-88
2021/09/21 10:56:42;;;;;;;0.70;0.68;;;9.80;99.90;;;;;;5062599;28;20239;-89
2021/09/21 10:59:16;;;;;;;0.20;0.20;;;9.80;99.90;;;;;;5070697;28;20244;-88
2021/09/21 11:01:49;;;;;;;0.20;0.20;;;9.90;99.90;;;;;;5070388;28;20197;-89
2021/09/21 11:04:15;;;;;;;0.50;0.50;;;9.90;99.90;;;;;;5087903;28;20205;-90
2021/09/21 11:06:47;;;;;;;0.30;0.30;;;9.90;99.90;;;;;;5087609;28;20201;-88
2021/09/21 11:09:23;;;;;;;0.30;0.30;;;10.00;99.90;;;;;;5087792;28;20236;-88
2021/09/21 11:11:49;;;;;;;0.40;0.40;;;9.90;99.90;;;;;;5071685;28;20204;-89
2021/09/21 11:14:19;;;;;;;1.27;1.00;;;10.00;99.90;;;;;;5087259;28;20197;-89
2021/09/21 11:16:52;;;;;;;0.60;0.60;;;10.00;99.90;;;;;;5070452;28;20493;-88
2021/09/21 11:19:18;;;;;;;0.70;0.70;;;10.00;99.90;;;;;;5087177;28;20574;-88
2021/09/21 11:21:44;;;;;;;0.50;0.50;;;10.10;99.90;;;;;;5087042;28;20254;-88
2021/09/21 11:24:10;;;;;;;0.32;0.32;;;10.10;99.90;;;;;;5087295;28;20274;-89
2021/09/21 11:26:37;;;;;;;0.85;0.57;;;10.10;99.90;;;;;;5087238;28;20235;-90
2021/09/21 11:29:15;;;;;;;0.40;0.40;;;10.20;99.90;;;;;;5087588;28;20200;-88
2021/09/21 11:31:41;;;;;;;0.40;0.40;;;10.10;99.90;;;;;;5053983;28;20204;-88
2021/09/21 11:34:10;;;;;;;0.52;0.52;;;10.10;99.90;;;;;;5086736;28;20706;-87
2021/09/21 11:36:38;;;;;;;0.68;0.65;;;10.20;99.90;;;;;;5069689;28;20223;-86
2021/09/21 11:39:04;;;;;;;0.70;0.70;;;10.10;99.90;;;;;;5070457;28;20201;-86
2021/09/21 11:41:30;;;;;;;0.52;0.52;;;10.20;99.90;;;;;;5085448;28;20614;-87
2021/09/21 11:44:00;;;;;;;0.45;0.45;;;10.10;99.90;;;;;;5086935;28;20656;-88
2021/09/21 11:46:32;;;;;;;0.30;0.30;;;10.20;99.90;;;;;;5069875;28;20200;-88
2021/09/21 11:48:59;;;;;;;0.55;0.55;;;10.10;99.90;;;;;;5069166;28;20213;-87
2021/09/21 11:51:25;;;;;;;0.30;0.30;;;10.20;99.90;;;;;;5085955;28;20233;-87
2021/09/21 11:53:55;;;;;;;0.30;0.30;;;10.10;99.90;;;;;;5086594;28;20205;-88
2021/09/21 11:56:21;;;;;;;0.70;0.70;;;10.10;99.90;;;;;;5069641;28;20224;-89
2021/09/21 11:58:47;;;;;;;0.25;0.25;;;10.10;99.90;;;;;;5086882;28;20349;-88
2021/09/21 12:01:13;;;;;;;0.30;0.30;;;10.10;99.90;;;;;;5050225;28;20223;-89
2021/09/21 12:03:39;;;;;;;0.60;0.60;;;10.10;99.90;;;;;;5082877;28;20283;-88
2021/09/21 12:06:05;;;;;;;0.60;0.60;;;10.10;99.90;;;;;;5086473;28;20201;-88
2021/09/21 12:08:36;;;;;;;0.75;0.75;;;10.20;99.90;;;;;;5069299;28;20270;-88
2021/09/21 12:11:10;;;;;;;3.05;1.38;;;10.30;99.90;;;;;;5089351;28;20283;-88
2021/09/21 12:13:36;;;;;;;1.40;1.08;;;10.30;99.90;;;;;;5073338;28;20311;-88
2021/09/21 12:16:05;;;;;;;1.02;1.02;;;10.30;99.90;;;;;;5090285;28;20266;-88
2021/09/21 12:18:33;;;;;;;0.85;0.85;;;10.40;99.90;;;;;;5089704;28;20205;-89
2021/09/21 12:21:03;;;;;;;0.80;0.80;;;10.40;99.90;;;;;;5090068;28;20549;-87
2021/09/21 12:23:32;;;;;;;0.70;0.70;;;10.40;99.90;;;;;;5072924;28;20246;-87
2021/09/21 12:26:00;;;;;;;0.80;0.80;;;10.40;99.90;;;;;;5089934;28;20291;-88
2021/09/21 12:28:32;;;;;;;0.77;0.77;;;10.40;99.90;;;;;;5074197;28;20204;-87
2021/09/21 12:31:05;;;;;;;1.08;0.80;;;10.40;99.90;;;;;;5089687;28;20208;-88
2021/09/21 12:33:35;;;;;;;0.80;0.80;;;10.40;99.90;;;;;;5072369;28;20271;-89
2021/09/21 12:36:00;;;;;;;0.68;0.68;;;10.40;99.90;;;;;;5073017;28;20263;-88
2021/09/21 12:38:26;;;;;;;0.60;0.60;;;10.50;99.90;;;;;;5089223;28;20212;-87
2021/09/21 12:40:58;;;;;;;0.88;0.88;;;10.50;99.90;;;;;;5089640;28;20197;-87
2021/09/21 12:43:41;;;;;;;0.70;0.70;;;10.50;99.90;;;;;;5089380;28;20565;-87
2021/09/21 12:46:10;;;;;;;0.80;0.80;;;10.40;99.90;;;;;;5089323;28;20651;-86
2021/09/21 12:48:38;;;;;;;0.98;0.98;;;10.50;99.90;;;;;;5088977;28;20200;-86
2021/09/21 12:51:06;;;;;;;0.82;0.82;;;10.50;99.90;;;;;;5072110;28;20221;-86
2021/09/21 12:53:33;;;;;;;0.70;0.70;;;10.50;99.90;;;;;;5079185;28;20197;-87
2021/09/21 12:56:10;;;;;;;0.60;0.60;;;10.50;99.90;;;;;;5070319;28;20217;-87
2021/09/21 12:58:41;;;;;;;1.02;0.95;;;10.50;99.90;;;;;;5089200;28;20215;-86
2021/09/21 13:01:14;;;;;;;0.80;0.80;;;10.50;99.90;;;;;;5072026;28;20193;-87
2021/09/21 13:03:45;;;;;;;0.75;0.75;;;10.50;99.90;;;;;;5088880;28;20621;-87
2021/09/21 13:06:11;;;;;;;0.98;0.82;;;10.50;99.90;;;;;;5089035;28;20196;-85
2021/09/21 13:08:45;;;;;;;0.82;0.80;;;10.50;99.90;;;;;;5088576;28;20223;-87
2021/09/21 13:11:10;;;;;;;0.82;0.80;;;10.50;99.90;;;;;;5071964;28;20295;-86
2021/09/21 13:13:36;;;;;;;0.77;0.77;;;10.60;99.90;;;;;;5088602;28;20369;-85
2021/09/21 13:16:03;;;;;;;0.60;0.60;;;10.60;99.90;;;;;;5088832;28;20685;-86